Time;durP1;ratioP1;P1;durP2;ratioP2;P2;SDS_P1;SDS_P2;PMS_P1;PMS_P2;Temp;Humidity;BMP_temperature;BMP_pressure;BME280_temperature;BME280_humidity;BME280_pressure;Samples;Min_cycle;Max_cycle;Signal;HPM_P1;HPM_P2
2021/06/05 00:00:24;;;;;;;7.85;5.65;;;22.30;81.60;;;;;;5037597;28;20539;-78
2021/06/05 00:02:50;;;;;;;4.80;4.35;;;22.40;81.80;;;;;;5038215;28;20040;-79
2021/06/05 00:05:16;;;;;;;5.97;4.53;;;22.40;81.50;;;;;;5021000;28;20029;-78
2021/06/05 00:07:41;;;;;;;6.18;4.35;;;22.40;81.10;;;;;;5041480;28;20037;-79
2021/06/05 00:10:16;;;;;;;7.07;5.38;;;22.30;81.10;;;;;;5034743;28;20515;-79
2021/06/05 00:12:42;;;;;;;5.93;5.38;;;22.40;81.40;;;;;;5038574;28;20029;-79
2021/06/05 00:15:13;;;;;;;5.30;4.80;;;22.40;81.80;;;;;;5055902;28;20052;-79
2021/06/05 00:17:39;;;;;;;5.93;5.32;;;22.30;82.10;;;;;;5038977;28;20122;-80
2021/06/05 00:20:11;;;;;;;6.50;5.10;;;22.20;82.50;;;;;;5021109;28;20057;-81
2021/06/05 00:22:37;;;;;;;5.40;4.90;;;22.00;82.90;;;;;;5038959;28;20110;-80
2021/06/05 00:25:06;;;;;;;5.53;5.00;;;22.00;83.50;;;;;;5022266;28;20818;-79
2021/06/05 00:27:32;;;;;;;5.75;5.25;;;21.80;84.20;;;;;;5016026;28;20037;-79
2021/06/05 00:29:57;;;;;;;5.53;5.03;;;21.60;85.20;;;;;;5037690;28;20037;-79
2021/06/05 00:32:23;;;;;;;6.30;5.60;;;21.50;85.80;;;;;;5026092;28;20037;-79
2021/06/05 00:34:48;;;;;;;5.97;5.38;;;21.40;85.80;;;;;;5041445;28;20128;-79
2021/06/05 00:37:14;;;;;;;6.45;5.63;;;21.50;85.80;;;;;;5058067;28;20047;-79
2021/06/05 00:39:40;;;;;;;5.95;5.35;;;21.40;85.90;;;;;;5011924;28;20033;-79
2021/06/05 00:42:05;;;;;;;5.70;5.20;;;21.50;85.80;;;;;;5036054;28;20021;-79
2021/06/05 00:44:31;;;;;;;6.75;5.90;;;21.10;87.00;;;;;;5009609;28;20041;-80
2021/06/05 00:46:58;;;;;;;6.63;5.50;;;20.90;87.80;;;;;;5054381;28;20025;-78
2021/06/05 00:49:23;;;;;;;7.40;6.00;;;20.90;88.00;;;;;;5023225;28;20064;-80
2021/06/05 00:51:53;;;;;;;6.82;5.90;;;20.80;88.20;;;;;;5020835;28;20432;-80
2021/06/05 00:54:20;;;;;;;7.25;4.97;;;20.70;88.80;;;;;;5028418;28;20116;-79
2021/06/05 00:56:53;;;;;;;6.05;5.45;;;20.60;89.30;;;;;;5039320;28;20036;-78
2021/06/05 00:59:20;;;;;;;6.13;5.53;;;20.60;89.10;;;;;;5030597;28;20497;-78
2021/06/05 01:01:46;;;;;;;6.05;5.47;;;20.60;89.50;;;;;;5013376;28;20079;-78
2021/06/05 01:04:12;;;;;;;6.05;5.47;;;20.50;89.70;;;;;;5047118;28;20497;-78
2021/06/05 01:06:59;;;;;;;6.25;5.65;;;20.60;89.70;;;;;;5048350;28;20065;-77
2021/06/05 01:09:46;;;;;;;5.72;5.13;;;20.80;88.90;;;;;;5031417;28;20049;-77
2021/06/05 01:12:21;;;;;;;5.82;5.22;;;20.90;88.50;;;;;;5037652;28;20037;-77
2021/06/05 01:15:00;;;;;;;5.38;4.88;;;20.90;88.30;;;;;;5039658;28;20559;-77
2021/06/05 01:17:31;;;;;;;5.45;4.95;;;21.00;88.20;;;;;;5020422;28;20117;-77
2021/06/05 01:20:06;;;;;;;5.78;5.18;;;21.00;87.90;;;;;;5028793;28;20029;-78
2021/06/05 01:23:11;;;;;;;6.20;5.60;;;21.00;87.70;;;;;;5047161;28;20030;-78
2021/06/05 01:26:10;;;;;;;6.93;5.43;;;21.00;87.90;;;;;;5049399;28;20481;-77
2021/06/05 01:28:49;;;;;;;6.43;5.82;;;21.10;87.60;;;;;;5045332;28;20045;-77
2021/06/05 01:31:20;;;;;;;7.78;5.57;;;21.10;87.40;;;;;;5031879;28;20031;-79
2021/06/05 01:40:30;;;;;;;5.95;5.32;;;21.00;87.30;;;;;;5058046;28;20065;-78
2021/06/05 01:43:00;;;;;;;9.55;5.53;;;20.80;88.30;;;;;;5048910;28;20044;-79
2021/06/05 01:45:31;;;;;;;8.10;5.18;;;20.60;88.90;;;;;;5053601;28;20029;-78
2021/06/05 01:47:57;;;;;;;5.68;5.10;;;20.50;89.10;;;;;;5057437;28;20033;-79
2021/06/05 01:50:27;;;;;;;7.20;5.10;;;20.50;89.20;;;;;;5039828;28;20485;-78
2021/06/05 01:52:56;;;;;;;5.85;4.50;;;20.50;89.00;;;;;;5056928;28;20078;-78
2021/06/05 01:55:31;;;;;;;5.63;5.03;;;20.60;88.70;;;;;;5044432;28;20028;-78
2021/06/05 01:58:01;;;;;;;5.38;4.88;;;20.60;88.60;;;;;;5038271;28;20036;-77
2021/06/05 02:00:30;;;;;;;5.53;5.03;;;20.60;88.40;;;;;;5022444;28;20033;-77
2021/06/05 02:02:58;;;;;;;6.88;5.00;;;20.70;88.30;;;;;;5056184;28;20074;-78
2021/06/05 02:05:26;;;;;;;5.63;5.13;;;20.80;88.10;;;;;;5026370;28;20483;-78
2021/06/05 02:07:53;;;;;;;5.43;4.88;;;20.90;87.80;;;;;;5021764;28;20108;-77
2021/06/05 02:10:21;;;;;;;5.80;5.30;;;20.90;87.50;;;;;;5022146;28;20544;-78
2021/06/05 02:12:50;;;;;;;6.15;4.68;;;21.00;87.40;;;;;;5057386;28;20025;-79
2021/06/05 02:15:36;;;;;;;5.00;4.60;;;21.10;87.30;;;;;;5048691;28;21547;-78
2021/06/05 02:18:06;;;;;;;6.18;5.32;;;21.00;87.20;;;;;;5026528;28;20041;-78
2021/06/05 02:20:40;;;;;;;5.70;4.82;;;20.90;87.60;;;;;;5038002;28;20029;-79
2021/06/05 02:23:13;;;;;;;5.18;4.68;;;20.90;87.90;;;;;;5023694;28;20075;-78
2021/06/05 02:25:39;;;;;;;5.57;5.00;;;20.80;88.50;;;;;;5034243;28;20086;-78
2021/06/05 02:28:06;;;;;;;5.35;4.85;;;20.70;88.70;;;;;;5054269;28;20436;-77
2021/06/05 02:30:33;;;;;;;5.82;4.90;;;20.70;88.70;;;;;;5046434;28;20386;-77
2021/06/05 02:33:00;;;;;;;5.20;4.70;;;20.60;89.10;;;;;;5055952;28;20117;-78
2021/06/05 02:35:30;;;;;;;4.97;4.57;;;20.60;89.10;;;;;;5054827;28;20496;-79
2021/06/05 02:37:56;;;;;;;5.50;4.95;;;20.60;88.90;;;;;;5055013;28;20108;-77
2021/06/05 02:40:26;;;;;;;8.30;5.47;;;20.80;88.50;;;;;;5047062;28;20492;-78
2021/06/05 02:42:52;;;;;;;6.20;5.28;;;20.80;88.50;;;;;;5049668;28;20032;-77
2021/06/05 02:46:00;;;;;;;6.30;5.22;;;20.80;88.40;;;;;;5053663;28;20484;-76
2021/06/05 02:48:55;;;;;;;6.70;5.10;;;20.80;88.50;;;;;;5054998;28;20040;-78
2021/06/05 02:51:27;;;;;;;6.03;5.03;;;20.90;88.50;;;;;;5037493;28;20139;-77
2021/06/05 02:53:53;;;;;;;5.15;4.60;;;20.90;88.50;;;;;;5035887;28;20108;-76
2021/06/05 02:56:19;;;;;;;5.90;5.40;;;20.90;88.50;;;;;;5026716;28;20087;-77
2021/06/05 02:58:45;;;;;;;6.10;5.35;;;20.90;88.40;;;;;;5022951;28;20025;-77
2021/06/05 03:01:12;;;;;;;7.38;5.50;;;20.90;88.40;;;;;;5035756;28;20037;-77
2021/06/05 03:03:38;;;;;;;8.27;5.30;;;20.80;88.40;;;;;;5038055;28;20167;-78
2021/06/05 03:06:05;;;;;;;8.07;5.60;;;20.80;88.60;;;;;;5025928;28;20516;-77
2021/06/05 03:08:34;;;;;;;6.47;5.20;;;20.80;88.30;;;;;;5054829;28;20032;-79
2021/06/05 03:11:01;;;;;;;5.75;5.00;;;20.80;88.50;;;;;;5040115;28;20404;-78
2021/06/05 03:13:28;;;;;;;5.70;5.18;;;20.80;88.80;;;;;;5037640;28;20036;-78
2021/06/05 03:15:54;;;;;;;6.03;5.05;;;20.70;89.00;;;;;;5038144;28;20055;-78
2021/06/05 03:18:22;;;;;;;5.70;5.10;;;20.80;89.00;;;;;;5045260;28;20037;-78
2021/06/05 03:20:49;;;;;;;6.72;5.40;;;20.80;89.00;;;;;;5050048;28;20029;-79
2021/06/05 03:23:16;;;;;;;5.93;5.30;;;20.90;88.70;;;;;;5038291;28;20060;-78
2021/06/05 03:25:42;;;;;;;6.30;5.70;;;20.90;88.30;;;;;;5032056;28;20029;-79
2021/06/05 03:28:08;;;;;;;5.82;5.32;;;20.90;88.60;;;;;;5056229;28;20048;-80
2021/06/05 03:30:35;;;;;;;7.55;5.65;;;20.90;88.50;;;;;;5045855;28;20514;-79
2021/06/05 03:33:01;;;;;;;5.43;4.93;;;20.90;88.50;;;;;;5056229;28;20039;-79
2021/06/05 03:35:27;;;;;;;10.27;5.65;;;20.90;88.50;;;;;;5059063;28;20036;-79
2021/06/05 03:37:53;;;;;;;6.70;5.25;;;20.80;88.50;;;;;;5057580;28;20048;-79
2021/06/05 03:40:24;;;;;;;6.75;5.38;;;20.80;88.70;;;;;;5047891;28;20049;-78
2021/06/05 03:42:50;;;;;;;7.22;5.70;;;20.80;88.40;;;;;;5047023;28;20107;-80
2021/06/05 03:45:16;;;;;;;6.80;5.00;;;20.80;88.50;;;;;;5035679;28;20071;-78
2021/06/05 03:47:46;;;;;;;5.60;4.75;;;20.90;88.60;;;;;;5054464;28;20036;-78
2021/06/05 03:50:12;;;;;;;5.88;5.38;;;20.90;88.60;;;;;;5053308;28;20029;-77
2021/06/05 03:52:38;;;;;;;5.75;5.25;;;21.00;88.30;;;;;;5033400;28;20040;-78
2021/06/05 03:55:04;;;;;;;5.95;5.15;;;20.90;88.90;;;;;;5035616;28;20037;-77
2021/06/05 03:57:33;;;;;;;5.93;5.43;;;20.80;89.30;;;;;;5044007;28;20033;-78
2021/06/05 03:59:59;;;;;;;5.53;4.95;;;20.70;89.30;;;;;;5033196;28;20037;-79
2021/06/05 04:02:24;;;;;;;5.47;4.93;;;20.70;89.70;;;;;;5044007;28;20547;-77
2021/06/05 04:04:51;;;;;;;4.88;4.35;;;20.80;89.60;;;;;;5020797;28;20092;-77
2021/06/05 04:07:18;;;;;;;5.47;4.80;;;20.90;89.30;;;;;;5047997;28;20507;-76
2021/06/05 04:09:44;;;;;;;5.22;4.72;;;21.00;88.80;;;;;;5034196;28;20033;-77
2021/06/05 04:12:11;;;;;;;7.00;4.70;;;21.00;88.60;;;;;;5045384;28;20060;-77
2021/06/05 04:14:39;;;;;;;6.05;4.80;;;21.10;88.30;;;;;;5058555;28;20109;-77
2021/06/05 04:17:07;;;;;;;6.13;5.53;;;21.10;88.00;;;;;;5023648;28;20041;-77
2021/06/05 04:19:33;;;;;;;6.97;5.70;;;21.20;87.50;;;;;;5057877;28;20079;-78
2021/06/05 04:21:59;;;;;;;8.18;5.25;;;21.20;87.10;;;;;;5057749;28;20559;-79
2021/06/05 04:24:24;;;;;;;6.35;5.20;;;21.20;87.20;;;;;;5057282;28;20029;-77
2021/06/05 04:26:51;;;;;;;6.35;4.50;;;21.20;87.50;;;;;;5049830;28;20040;-78
2021/06/05 04:29:17;;;;;;;5.53;4.80;;;21.30;87.50;;;;;;5036475;28;20025;-78
2021/06/05 04:31:43;;;;;;;5.72;4.95;;;21.40;87.20;;;;;;5043014;28;20025;-78
2021/06/05 04:34:08;;;;;;;8.40;5.85;;;21.50;86.40;;;;;;5023488;28;20071;-77
2021/06/05 04:36:34;;;;;;;8.13;5.68;;;21.60;86.60;;;;;;5038966;28;20120;-78
2021/06/05 04:39:00;;;;;;;5.57;4.65;;;21.70;86.40;;;;;;5021803;28;20053;-79
2021/06/05 04:41:26;;;;;;;6.10;5.50;;;21.70;86.00;;;;;;5023819;28;20047;-77
2021/06/05 04:43:52;;;;;;;5.75;5.25;;;21.70;86.00;;;;;;5058133;28;20037;-78
2021/06/05 04:46:19;;;;;;;7.22;5.60;;;21.60;86.90;;;;;;5057759;28;20618;-78
2021/06/05 04:48:45;;;;;;;6.00;5.40;;;21.50;86.80;;;;;;5039173;28;20041;-78
2021/06/05 04:51:14;;;;;;;7.45;5.43;;;21.30;87.90;;;;;;5025973;28;20507;-78
2021/06/05 04:53:40;;;;;;;6.15;5.60;;;21.30;87.80;;;;;;5056685;28;20505;-78
2021/06/05 04:56:06;;;;;;;9.15;6.20;;;21.30;87.50;;;;;;5060095;28;20033;-78
2021/06/05 04:58:32;;;;;;;6.20;5.60;;;21.40;87.00;;;;;;5060780;28;20036;-78
2021/06/05 05:00:59;;;;;;;7.05;4.90;;;21.30;87.50;;;;;;5062097;28;20473;-78
2021/06/05 05:03:27;;;;;;;6.78;5.75;;;21.30;87.20;;;;;;5049685;28;20037;-79
2021/06/05 05:05:59;;;;;;;5.30;4.80;;;21.40;86.50;;;;;;5044720;28;20029;-77
2021/06/05 05:08:25;;;;;;;5.30;4.75;;;21.50;86.60;;;;;;5048273;28;20025;-78
2021/06/05 05:10:52;;;;;;;7.10;5.72;;;21.60;86.40;;;;;;5041084;28;20378;-79
2021/06/05 05:13:27;;;;;;;6.65;5.95;;;21.60;86.00;;;;;;5045190;28;20504;-79
2021/06/05 05:15:55;;;;;;;5.70;5.20;;;21.70;85.80;;;;;;5040588;28;20120;-79
2021/06/05 05:18:22;;;;;;;6.70;5.80;;;21.70;85.90;;;;;;5040395;28;20479;-79
2021/06/05 05:20:52;;;;;;;7.82;5.70;;;21.60;86.20;;;;;;5043446;28;20550;-79
2021/06/05 05:23:25;;;;;;;6.93;5.90;;;21.60;86.70;;;;;;5058857;28;20469;-78
2021/06/05 05:25:51;;;;;;;6.40;5.70;;;21.20;87.80;;;;;;5055085;28;20029;-79
2021/06/05 05:28:18;;;;;;;7.20;5.75;;;21.00;88.70;;;;;;5045803;28;20033;-79
2021/06/05 05:30:51;;;;;;;10.52;6.40;;;21.00;88.80;;;;;;5039310;28;20041;-78
2021/06/05 05:33:18;;;;;;;10.37;6.53;;;21.00;88.80;;;;;;5025588;28;20061;-78
2021/06/05 05:35:44;;;;;;;8.85;6.85;;;21.00;88.80;;;;;;5054787;28;20037;-79
2021/06/05 05:38:11;;;;;;;9.27;6.55;;;20.80;89.40;;;;;;5050812;28;20127;-77
2021/06/05 05:40:41;;;;;;;7.65;5.82;;;20.70;90.10;;;;;;5038527;28;20127;-79
2021/06/05 05:43:07;;;;;;;6.55;5.85;;;20.80;90.10;;;;;;5038611;28;20021;-78
2021/06/05 05:45:36;;;;;;;11.93;6.50;;;21.00;89.50;;;;;;5019638;28;20048;-78
2021/06/05 05:48:04;;;;;;;8.25;5.82;;;20.90;89.70;;;;;;5038494;28;20031;-78
2021/06/05 05:50:32;;;;;;;7.57;5.93;;;20.80;90.10;;;;;;5038784;28;20041;-77
2021/06/05 05:52:59;;;;;;;7.60;5.32;;;21.10;89.30;;;;;;5055369;28;20112;-78
2021/06/05 05:55:25;;;;;;;6.93;5.30;;;21.10;88.90;;;;;;5038859;28;20506;-79
2021/06/05 05:57:51;;;;;;;5.68;5.18;;;21.10;89.40;;;;;;5039214;28;20454;-78
2021/06/05 06:00:24;;;;;;;7.20;5.72;;;21.20;89.10;;;;;;5040360;28;20039;-78
2021/06/05 06:02:50;;;;;;;6.50;5.38;;;21.40;88.60;;;;;;5056651;28;20024;-79
2021/06/05 06:05:15;;;;;;;5.72;5.13;;;21.50;88.40;;;;;;5003781;28;20450;-78
2021/06/05 06:07:41;;;;;;;5.50;5.00;;;21.60;87.20;;;;;;5021081;28;20037;-77
2021/06/05 06:10:09;;;;;;;7.18;5.43;;;21.70;87.20;;;;;;5043757;28;20043;-77
2021/06/05 06:13:03;;;;;;;5.63;5.00;;;21.80;87.00;;;;;;5038462;28;20502;-80
2021/06/05 06:15:32;;;;;;;5.25;4.75;;;21.90;86.60;;;;;;5044036;28;20454;-80
2021/06/05 06:17:59;;;;;;;7.75;5.28;;;21.90;86.50;;;;;;5056601;28;20037;-79
2021/06/05 06:20:30;;;;;;;6.88;5.90;;;21.90;85.90;;;;;;5036122;28;20505;-77
2021/06/05 06:22:55;;;;;;;6.28;4.88;;;22.00;85.70;;;;;;5054940;28;20120;-76
2021/06/05 06:25:23;;;;;;;5.57;4.93;;;22.10;85.50;;;;;;5017285;28;20485;-77
2021/06/05 06:27:49;;;;;;;6.53;5.22;;;22.20;85.40;;;;;;5049426;28;20060;-79
2021/06/05 06:30:22;;;;;;;5.63;5.03;;;22.20;85.30;;;;;;5039291;28;20389;-77
2021/06/05 06:32:52;;;;;;;6.68;5.22;;;22.30;85.20;;;;;;5040731;28;20092;-78
2021/06/05 06:35:28;;;;;;;6.13;4.60;;;22.50;85.10;;;;;;5040690;28;20036;-79
2021/06/05 06:37:55;;;;;;;5.60;5.10;;;22.60;84.90;;;;;;5052038;28;20013;-77
2021/06/05 06:40:27;;;;;;;6.07;4.97;;;22.70;84.60;;;;;;5049688;28;20013;-79
2021/06/05 06:42:53;;;;;;;5.70;5.20;;;22.80;84.50;;;;;;5034169;28;20040;-77
2021/06/05 06:45:19;;;;;;;6.03;5.43;;;22.80;84.40;;;;;;5041493;28;20010;-77
2021/06/05 06:47:45;;;;;;;7.63;5.30;;;22.90;84.20;;;;;;5046309;28;20112;-78
2021/06/05 06:50:14;;;;;;;6.45;5.40;;;22.90;83.90;;;;;;5040348;28;20053;-78
2021/06/05 06:52:43;;;;;;;6.60;5.15;;;22.70;85.20;;;;;;5022270;28;20041;-79
2021/06/05 06:55:09;;;;;;;7.07;5.15;;;22.60;85.20;;;;;;5030125;28;20534;-79
2021/06/05 06:57:35;;;;;;;8.00;6.10;;;22.60;85.50;;;;;;5049253;28;20029;-79
2021/06/05 07:00:00;;;;;;;6.80;5.20;;;22.70;85.30;;;;;;5035399;28;20055;-80
2021/06/05 07:02:26;;;;;;;8.10;7.03;;;22.80;85.50;;;;;;5032994;28;20037;-79
2021/06/05 07:04:53;;;;;;;18.33;12.85;;;22.90;84.90;;;;;;5012741;28;20096;-80
2021/06/05 07:07:19;;;;;;;8.88;7.38;;;23.10;84.20;;;;;;5047472;28;20033;-79
2021/06/05 07:09:45;;;;;;;8.90;7.38;;;23.30;83.30;;;;;;5039878;28;20041;-78
2021/06/05 07:12:14;;;;;;;8.98;7.43;;;23.40;83.00;;;;;;5020079;28;20045;-80
2021/06/05 07:14:40;;;;;;;8.35;6.63;;;23.50;82.60;;;;;;5026627;28;20041;-79
2021/06/05 07:17:07;;;;;;;16.95;12.75;;;23.60;82.00;;;;;;5047304;28;20041;-80
2021/06/05 07:19:33;;;;;;;11.75;9.68;;;23.20;83.70;;;;;;5033759;28;20060;-78
2021/06/05 07:22:01;;;;;;;6.80;6.10;;;23.40;83.10;;;;;;5017191;28;20048;-78
2021/06/05 07:24:26;;;;;;;7.22;5.88;;;23.60;81.50;;;;;;5030740;28;20474;-78
2021/06/05 07:26:52;;;;;;;6.35;5.68;;;23.80;80.40;;;;;;5042833;28;20043;-79
2021/06/05 07:29:21;;;;;;;7.35;5.90;;;24.00;79.50;;;;;;5033956;28;20029;-80
2021/06/05 07:31:51;;;;;;;7.10;6.40;;;24.10;79.30;;;;;;5032608;28;20374;-78
2021/06/05 07:34:22;;;;;;;7.05;6.35;;;24.30;79.40;;;;;;5046154;28;20391;-78
2021/06/05 07:36:52;;;;;;;6.20;5.35;;;24.50;79.20;;;;;;5040061;28;20032;-79
2021/06/05 07:39:21;;;;;;;7.38;5.25;;;24.60;78.30;;;;;;5040115;28;20057;-80
2021/06/05 07:41:47;;;;;;;6.80;5.68;;;24.80;78.00;;;;;;5058805;28;20021;-79
2021/06/05 07:44:14;;;;;;;9.50;5.32;;;24.90;76.70;;;;;;5041024;28;20044;-79
2021/06/05 07:46:43;;;;;;;5.93;5.32;;;24.80;76.80;;;;;;5028399;28;20457;-80
2021/06/05 07:49:15;;;;;;;5.93;5.32;;;24.80;77.30;;;;;;5032888;28;20401;-80
2021/06/05 07:51:41;;;;;;;9.40;5.28;;;24.40;79.80;;;;;;5026762;28;20033;-80
2021/06/05 07:54:06;;;;;;;6.45;5.85;;;24.70;78.60;;;;;;5014748;28;20057;-80
2021/06/05 07:56:33;;;;;;;5.55;5.05;;;24.70;76.90;;;;;;5015600;28;20044;-80
2021/06/05 07:58:58;;;;;;;5.68;5.07;;;24.60;77.30;;;;;;5053970;28;20029;-78
2021/06/05 08:01:25;;;;;;;5.72;5.18;;;24.70;77.10;;;;;;5015163;28;20037;-78
2021/06/05 08:03:52;;;;;;;6.25;5.32;;;24.70;77.30;;;;;;5026236;28;20040;-80
2021/06/05 08:06:18;;;;;;;12.60;8.40;;;24.80;77.30;;;;;;5028782;28;20025;-80
2021/06/05 08:08:43;;;;;;;7.30;6.60;;;24.90;77.90;;;;;;5026783;28;20370;-79
2021/06/05 08:11:11;;;;;;;8.45;7.10;;;24.90;79.00;;;;;;5011660;28;20037;-79
2021/06/05 08:13:37;;;;;;;6.75;5.72;;;24.90;79.90;;;;;;5034871;28;20077;-79
2021/06/05 08:16:05;;;;;;;9.25;6.60;;;24.80;80.50;;;;;;5014766;28;20063;-78
2021/06/05 08:18:31;;;;;;;7.45;5.80;;;24.90;80.00;;;;;;5052272;28;20094;-77
2021/06/05 08:21:03;;;;;;;8.85;6.15;;;24.80;80.00;;;;;;5026550;28;20127;-78
2021/06/05 08:23:31;;;;;;;7.10;5.50;;;24.60;80.60;;;;;;5027094;28;20025;-78
2021/06/05 08:25:58;;;;;;;6.20;5.38;;;24.60;80.60;;;;;;5018510;28;20033;-77
2021/06/05 08:28:25;;;;;;;6.38;5.53;;;24.80;79.90;;;;;;5014311;28;20026;-76
2021/06/05 08:30:53;;;;;;;5.53;5.07;;;24.90;79.60;;;;;;5026958;28;20056;-77
2021/06/05 08:33:19;;;;;;;7.57;5.65;;;25.10;78.90;;;;;;5030956;28;20500;-77
2021/06/05 08:35:46;;;;;;;6.13;5.53;;;25.20;79.00;;;;;;5026161;28;20128;-78
2021/06/05 08:38:14;;;;;;;6.25;5.65;;;25.30;78.30;;;;;;5050376;28;20515;-78
2021/06/05 08:40:46;;;;;;;5.60;5.00;;;25.40;78.00;;;;;;5047205;28;20033;-78
2021/06/05 08:43:17;;;;;;;7.85;5.30;;;25.50;77.40;;;;;;5057485;28;20029;-77
2021/06/05 08:45:45;;;;;;;5.93;5.15;;;25.70;76.50;;;;;;5054457;28;20025;-77
2021/06/05 08:48:15;;;;;;;5.50;5.00;;;25.90;76.00;;;;;;5055289;28;20515;-81
2021/06/05 08:50:45;;;;;;;7.30;6.25;;;26.10;75.20;;;;;;5026450;28;20072;-78
2021/06/05 08:53:20;;;;;;;9.95;7.05;;;26.40;74.90;;;;;;5034476;28;20093;-75
2021/06/05 08:55:53;;;;;;;7.32;5.78;;;26.50;73.90;;;;;;5015742;28;20124;-78
2021/06/05 08:58:31;;;;;;;5.45;4.80;;;26.50;73.60;;;;;;5035979;28;20050;-78
2021/06/05 09:01:01;;;;;;;6.07;4.57;;;26.40;72.80;;;;;;5030756;28;20038;-78
2021/06/05 09:03:29;;;;;;;5.97;4.55;;;26.30;72.60;;;;;;5035317;28;20104;-77
2021/06/05 09:06:06;;;;;;;7.30;4.28;;;26.40;72.40;;;;;;5034522;28;20032;-77
2021/06/05 09:08:32;;;;;;;4.85;4.28;;;26.40;72.40;;;;;;5054927;28;20049;-78
2021/06/05 09:11:00;;;;;;;4.45;4.05;;;26.50;72.10;;;;;;5037318;28;20047;-78
2021/06/05 09:13:26;;;;;;;4.90;4.40;;;26.60;72.00;;;;;;5024093;28;20044;-78
2021/06/05 09:16:20;;;;;;;12.25;10.82;;;26.70;71.60;;;;;;5045351;28;20033;-77
2021/06/05 09:18:53;;;;;;;10.05;8.07;;;26.90;71.00;;;;;;5047165;28;20580;-77
2021/06/05 09:21:35;;;;;;;7.78;5.97;;;26.90;70.60;;;;;;4998591;28;20045;-78
2021/06/05 09:24:25;;;;;;;4.30;3.90;;;27.10;70.10;;;;;;5050503;28;20086;-78
2021/06/05 09:27:12;;;;;;;4.93;4.22;;;27.10;70.30;;;;;;5030444;28;20061;-77
2021/06/05 09:29:54;;;;;;;5.72;4.88;;;27.30;69.80;;;;;;5037229;28;20094;-75
2021/06/05 09:32:27;;;;;;;5.20;4.65;;;27.50;68.80;;;;;;5052528;28;20029;-77
2021/06/05 09:35:15;;;;;;;8.40;4.32;;;27.50;68.70;;;;;;5011540;28;20041;-77
2021/06/05 09:37:45;;;;;;;6.45;4.30;;;27.40;67.90;;;;;;5021572;28;20037;-76
2021/06/05 09:40:20;;;;;;;6.40;4.22;;;27.30;66.40;;;;;;5054695;28;20044;-78
2021/06/05 09:42:49;;;;;;;5.60;4.47;;;27.20;65.90;;;;;;5052243;28;20021;-78
2021/06/05 09:45:20;;;;;;;6.47;4.93;;;27.20;68.10;;;;;;5050318;28;20029;-79
2021/06/05 09:47:46;;;;;;;5.18;4.68;;;26.50;72.70;;;;;;5047763;28;20106;-78
2021/06/05 09:50:21;;;;;;;5.72;4.43;;;26.30;73.00;;;;;;5033476;28;20042;-78
2021/06/05 09:52:46;;;;;;;6.10;5.13;;;26.20;73.50;;;;;;5035154;28;20566;-78
2021/06/05 09:55:15;;;;;;;8.50;4.75;;;26.20;73.60;;;;;;5051273;28;20036;-79
2021/06/05 09:57:43;;;;;;;6.20;4.60;;;26.30;73.00;;;;;;5057988;28;20024;-78
2021/06/05 10:00:18;;;;;;;6.03;5.00;;;26.50;73.10;;;;;;5044288;28;20056;-79
2021/06/05 10:02:46;;;;;;;5.43;4.47;;;26.30;73.70;;;;;;5043352;28;20033;-78
2021/06/05 10:05:20;;;;;;;6.65;5.68;;;26.10;74.50;;;;;;5028274;28;20032;-79
2021/06/05 10:07:50;;;;;;;8.23;5.05;;;26.00;74.60;;;;;;5047605;28;20444;-79
2021/06/05 10:10:41;;;;;;;7.20;4.82;;;26.10;74.10;;;;;;5037199;28;20036;-80
2021/06/05 10:13:30;;;;;;;5.28;4.78;;;26.30;74.00;;;;;;5019878;28;20037;-79
2021/06/05 10:16:00;;;;;;;5.57;4.30;;;26.10;74.00;;;;;;5039825;28;20033;-77
2021/06/05 10:18:32;;;;;;;3.88;3.35;;;26.00;73.00;;;;;;5021837;28;20057;-78
2021/06/05 10:21:08;;;;;;;4.53;4.13;;;25.70;72.60;;;;;;5047421;28;20089;-78
2021/06/05 10:23:41;;;;;;;3.70;3.22;;;25.80;71.90;;;;;;5047710;28;20079;-79
2021/06/05 10:26:33;;;;;;;4.57;3.23;;;25.90;69.70;;;;;;5050265;28;20030;-77
2021/06/05 10:29:03;;;;;;;4.50;3.10;;;25.60;70.00;;;;;;5038537;28;20021;-77
2021/06/05 10:31:32;;;;;;;4.63;3.40;;;25.50;69.40;;;;;;5027567;28;20041;-76
2021/06/05 10:34:03;;;;;;;3.20;2.90;;;25.30;70.00;;;;;;5031020;28;20037;-78
2021/06/05 10:36:48;;;;;;;3.50;3.03;;;25.50;68.20;;;;;;5028980;28;20396;-77
2021/06/05 10:39:15;;;;;;;;;;;25.50;68.60;;;;;;5014302;28;20073;-77
2021/06/05 10:41:56;;;;;;;5.47;3.13;;;25.60;68.50;;;;;;5023879;28;19913;-77
2021/06/05 10:44:23;;;;;;;4.03;3.40;;;25.70;68.50;;;;;;5018072;28;20060;-78
2021/06/05 10:46:54;;;;;;;5.20;3.15;;;26.00;67.90;;;;;;5004692;28;20037;-78
2021/06/05 10:49:29;;;;;;;3.88;3.10;;;26.00;67.70;;;;;;5028587;28;20029;-79
2021/06/05 10:52:08;;;;;;;3.78;3.25;;;26.00;67.80;;;;;;5048720;28;20038;-78
2021/06/05 10:54:52;;;;;;;3.92;3.03;;;25.80;68.40;;;;;;5051529;28;20083;-78
2021/06/05 10:57:30;;;;;;;4.53;3.30;;;25.70;69.10;;;;;;5032167;28;20052;-78
2021/06/05 11:00:06;;;;;;;3.55;3.25;;;25.60;69.10;;;;;;5053521;28;20047;-78
2021/06/05 11:02:51;;;;;;;4.72;3.55;;;26.00;68.90;;;;;;5058346;28;20089;-78
2021/06/05 11:05:17;;;;;;;3.85;3.50;;;26.10;68.40;;;;;;5045687;28;20025;-76
2021/06/05 11:07:46;;;;;;;5.03;3.85;;;26.30;68.50;;;;;;5030067;28;20025;-77
2021/06/05 11:10:43;;;;;;;3.90;3.50;;;26.50;68.00;;;;;;5009821;28;20035;-78
2021/06/05 11:13:09;;;;;;;4.55;3.97;;;26.80;67.90;;;;;;5023252;28;20382;-77
2021/06/05 11:15:51;;;;;;;10.55;4.53;;;26.90;68.00;;;;;;5003740;28;20102;-77
2021/06/05 11:18:30;;;;;;;6.38;4.32;;;27.10;67.10;;;;;;5012321;28;20037;-78
2021/06/05 11:20:57;;;;;;;4.95;4.10;;;27.20;66.70;;;;;;5038324;28;20030;-78
2021/06/05 11:23:25;;;;;;;5.32;3.80;;;27.60;65.90;;;;;;5019446;28;20067;-78
2021/06/05 11:25:54;;;;;;;7.30;6.30;;;27.60;66.00;;;;;;5057302;28;20013;-78
2021/06/05 11:28:40;;;;;;;4.65;4.20;;;27.80;65.90;;;;;;5054453;28;20116;-78
2021/06/05 11:31:39;;;;;;;8.57;5.68;;;27.80;66.00;;;;;;5055474;28;20039;-78
2021/06/05 11:34:06;;;;;;;6.60;4.28;;;28.20;65.80;;;;;;5019244;28;20132;-78
2021/06/05 11:36:42;;;;;;;6.70;5.00;;;28.50;64.50;;;;;;5026344;28;20068;-77
2021/06/05 11:39:30;;;;;;;5.63;4.10;;;28.50;63.90;;;;;;5022825;28;20440;-77
2021/06/05 11:42:01;;;;;;;6.53;4.60;;;28.50;64.00;;;;;;5011490;28;20042;-77
2021/06/05 11:44:28;;;;;;;4.93;4.13;;;28.50;64.20;;;;;;5059964;28;20042;-77
2021/06/05 11:47:17;;;;;;;6.70;4.70;;;28.50;64.60;;;;;;5044269;28;20029;-77
2021/06/05 11:49:54;;;;;;;6.53;4.50;;;28.70;64.30;;;;;;5042799;28;20072;-81
2021/06/05 11:52:26;;;;;;;6.28;5.20;;;28.80;65.50;;;;;;5023911;28;20041;-77
2021/06/05 11:54:57;;;;;;;6.60;5.78;;;28.90;65.80;;;;;;5038550;28;20048;-76
2021/06/05 11:58:00;;;;;;;8.98;7.63;;;29.20;65.50;;;;;;5020685;28;20524;-77
2021/06/05 12:00:44;;;;;;;12.88;8.13;;;29.40;65.10;;;;;;5006327;28;20055;-76
2021/06/05 12:03:25;;;;;;;6.88;5.28;;;29.60;63.00;;;;;;5054574;28;20036;-77
2021/06/05 12:05:51;;;;;;;16.92;11.00;;;29.40;63.50;;;;;;5058451;28;20497;-78
2021/06/05 12:08:26;;;;;;;8.90;5.75;;;29.60;63.70;;;;;;5059478;28;20040;-76
2021/06/05 12:10:54;;;;;;;7.60;6.82;;;29.40;63.70;;;;;;5041365;28;20056;-76
2021/06/05 12:13:36;;;;;;;6.40;5.57;;;29.10;64.30;;;;;;5055877;28;20037;-76
2021/06/05 12:16:18;;;;;;;5.82;5.18;;;29.30;64.60;;;;;;5029918;28;20063;-78
2021/06/05 12:18:59;;;;;;;;;;;;;;;;;;;;;
2021/06/05 12:21:38;;;;;;;6.60;5.60;;;29.50;63.40;;;;;;5033164;28;20025;-78
2021/06/05 12:24:22;;;;;;;7.38;5.38;;;29.40;63.10;;;;;;5056955;28;20025;-78
2021/06/05 12:26:50;;;;;;;5.93;5.20;;;29.40;63.00;;;;;;5050892;28;20070;-77
2021/06/05 12:29:24;;;;;;;6.55;5.10;;;29.40;63.00;;;;;;5065610;28;20025;-80
2021/06/05 12:31:50;;;;;;;;;;;29.30;63.30;;;;;;5048156;28;20032;-79
2021/06/05 12:34:48;;;;;;;7.95;6.40;;;29.40;62.80;;;;;;5054870;28;19931;-79
2021/06/05 12:37:14;;;;;;;6.22;5.63;;;29.60;63.90;;;;;;5012387;28;20091;-79
2021/06/05 12:39:58;;;;;;;6.53;5.40;;;30.00;62.10;;;;;;5045530;28;20037;-78
2021/06/05 12:42:36;;;;;;;7.85;5.60;;;30.00;62.40;;;;;;5043449;28;20035;-78
2021/06/05 12:45:10;;;;;;;6.55;5.50;;;30.30;62.30;;;;;;5009619;28;20043;-79
2021/06/05 12:47:40;;;;;;;5.90;5.30;;;30.50;61.40;;;;;;5022589;28;20086;-79
2021/06/05 12:50:13;;;;;;;6.03;5.03;;;30.60;60.60;;;;;;5053221;28;20033;-77
2021/06/05 12:52:43;;;;;;;6.10;5.40;;;30.80;59.80;;;;;;5066516;28;20028;-78
2021/06/05 12:55:29;;;;;;;6.10;5.43;;;30.70;59.70;;;;;;5041394;28;20040;-79
2021/06/05 12:57:58;;;;;;;7.97;5.28;;;30.60;59.40;;;;;;5056482;28;20381;-79
2021/06/05 13:00:34;;;;;;;7.30;5.65;;;30.70;59.70;;;;;;5055223;28;20082;-78
2021/06/05 13:03:22;;;;;;;5.35;4.85;;;30.70;59.40;;;;;;5054462;28;20064;-79
2021/06/05 13:06:17;;;;;;;7.57;5.57;;;31.10;59.30;;;;;;5040684;28;20041;-79
2021/06/05 13:08:46;;;;;;;7.60;5.53;;;31.40;58.80;;;;;;5063398;28;20040;-79
2021/06/05 13:11:58;;;;;;;6.20;5.40;;;31.10;58.50;;;;;;5037122;28;20096;-78
2021/06/05 13:14:38;;;;;;;6.40;5.22;;;30.40;58.50;;;;;;5062209;28;20029;-79